Time;durP1;ratioP1;P1;durP2;ratioP2;P2;SDS_P1;SDS_P2;PMS_P1;PMS_P2;Temp;Humidity;BMP_temperature;BMP_pressure;BME280_temperature;BME280_humidity;BME280_pressure;Samples;Min_cycle;Max_cycle;Signal;HPM_P1;HPM_P2
2022/05/11 00:01:21;;;;;;;;;9.25;7.25;;;;;22.24;43.30;101040.50;5062771;28;45453;-71
2022/05/11 00:03:46;;;;;;;;;8.00;7.00;;;;;22.13;43.44;101022.28;5071581;28;45888;-70
2022/05/11 00:06:12;;;;;;;;;11.00;9.00;;;;;21.90;43.54;100996.00;5059549;28;45452;-71
2022/05/11 00:08:37;;;;;;;;;10.50;8.50;;;;;22.01;43.57;101029.50;5054606;28;45323;-70
2022/05/11 00:11:04;;;;;;;;;8.25;6.00;;;;;21.92;43.19;101030.22;5063115;28;45295;-70
2022/05/11 00:13:30;;;;;;;;;11.00;8.75;;;;;21.93;44.05;101033.81;5063457;28;46428;-71
2022/05/11 00:15:56;;;;;;;;;13.50;10.50;;;;;21.79;44.05;101007.69;5079667;28;45468;-70
2022/05/11 00:18:21;;;;;;;;;8.00;8.00;;;;;21.91;43.86;101036.63;5059455;28;45481;-70
2022/05/11 00:20:47;;;;;;;;;8.25;7.25;;;;;21.71;43.80;101005.53;5063776;28;45824;-71
2022/05/11 00:23:12;;;;;;;;;11.00;8.00;;;;;21.81;43.95;101024.72;5074143;28;48372;-70
2022/05/11 00:25:38;;;;;;;;;7.25;7.25;;;;;21.75;44.29;101026.06;5059366;28;45331;-70
2022/05/11 00:28:04;;;;;;;;;8.00;8.00;;;;;21.73;44.24;101027.16;5076876;28;45248;-70
2022/05/11 00:30:30;;;;;;;;;10.00;9.25;;;;;21.51;44.56;100982.59;5069765;28;45706;-70
2022/05/11 00:32:57;;;;;;;;;10.00;8.50;;;;;21.61;44.56;100999.91;5076780;28;46313;-70
2022/05/11 00:35:24;;;;;;;;;12.25;11.00;;;;;21.72;44.31;101011.81;5057987;28;45452;-70
2022/05/11 00:37:50;;;;;;;;;8.00;8.00;;;;;21.54;44.28;100981.50;5061766;27;45278;-70
2022/05/11 00:40:17;;;;;;;;;7.75;7.75;;;;;21.72;44.54;101000.97;5089976;27;45456;-70
2022/05/11 00:42:43;;;;;;;;;11.00;10.00;;;;;21.66;44.73;100988.72;5062043;28;46155;-71
2022/05/11 00:45:08;;;;;;;;;9.50;9.25;;;;;21.54;44.68;100963.34;5063424;28;45306;-70
2022/05/11 00:47:40;;;;;;;;;7.50;7.50;;;;;21.71;44.83;100991.94;5062749;27;45308;-70
2022/05/11 00:50:25;;;;;;;;;8.50;8.50;;;;;21.77;44.87;101007.81;5073231;28;45534;-70
2022/05/11 00:52:58;;;;;;;;;9.00;9.00;;;;;21.74;44.82;101002.59;5067919;28;46297;-70
2022/05/11 00:55:29;;;;;;;;;6.25;6.25;;;;;21.67;44.70;100987.75;5068745;28;45405;-71
2022/05/11 00:58:02;;;;;;;;;8.75;7.75;;;;;21.51;44.67;100969.00;5066840;28;45543;-70
2022/05/11 01:00:28;;;;;;;;;9.25;8.00;;;;;21.57;45.06;100975.84;5071337;28;45386;-70
2022/05/11 01:03:02;;;;;;;;;9.75;8.00;;;;;21.60;44.62;100983.72;5074906;28;46530;-70
2022/05/11 01:05:27;;;;;;;;;7.25;5.00;;;;;21.55;44.94;100975.06;5061087;28;45940;-70
2022/05/11 01:07:56;;;;;;;;;9.00;8.00;;;;;21.52;44.67;100975.28;5076126;28;45196;-71
2022/05/11 01:10:24;;;;;;;;;8.75;7.25;;;;;21.44;44.80;100956.84;5062103;28;45394;-70
2022/05/11 01:12:53;;;;;;;;;7.50;7.25;;;;;21.43;45.04;100955.09;5074392;28;46402;-70
2022/05/11 01:15:20;;;;;;;;;10.50;10.50;;;;;21.33;45.17;100949.47;5062453;27;45319;-70
2022/05/11 01:17:45;;;;;;;;;10.00;7.75;;;;;21.34;45.22;100944.94;5081372;28;45477;-70
2022/05/11 01:20:22;;;;;;;;;8.25;8.25;;;;;21.38;44.78;100958.16;5076203;28;45734;-70
2022/05/11 01:23:12;;;;;;;;;8.25;7.75;;;;;21.41;45.20;100968.78;5080064;28;46727;-70
2022/05/11 01:25:38;;;;;;;;;7.50;6.75;;;;;21.29;45.47;100946.13;5062195;28;45472;-71
2022/05/11 01:28:11;;;;;;;;;7.75;7.75;;;;;21.32;45.26;100941.44;5075443;28;45251;-70
2022/05/11 01:30:38;;;;;;;;;8.00;8.00;;;;;21.21;45.37;100932.25;5080358;28;45430;-71
2022/05/11 01:33:06;;;;;;;;;9.00;7.00;;;;;21.27;45.29;100939.97;5067584;28;45260;-71
2022/05/11 01:35:49;;;;;;;;;9.00;9.00;;;;;21.35;45.20;100949.38;5069150;28;45649;-70
2022/05/11 01:38:39;;;;;;;;;9.50;8.50;;;;;21.31;45.55;100945.16;5077815;27;45520;-71
2022/05/11 01:41:05;;;;;;;;;8.00;8.00;;;;;21.31;45.77;100946.03;5068972;28;45422;-71
2022/05/11 01:43:34;;;;;;;;;8.75;8.00;;;;;21.36;45.56;100951.97;5074566;28;45428;-71
2022/05/11 01:46:00;;;;;;;;;10.50;7.50;;;;;21.28;45.40;100932.66;5060129;28;45336;-71
2022/05/11 01:48:26;;;;;;;;;7.00;7.00;;;;;21.29;45.43;100939.84;5075498;28;45368;-71
2022/05/11 01:50:52;;;;;;;;;8.00;7.50;;;;;21.21;45.65;100925.97;5061730;28;45477;-71
2022/05/11 01:53:18;;;;;;;;;5.50;4.75;;;;;21.17;45.73;100922.63;5074259;28;45464;-71
2022/05/11 01:55:44;;;;;;;;;6.50;6.00;;;;;21.32;45.84;100947.75;5061725;28;45883;-71
2022/05/11 01:58:11;;;;;;;;;7.00;5.50;;;;;21.20;45.96;100937.81;5073536;28;45415;-70
2022/05/11 02:00:39;;;;;;;;;5.75;5.50;;;;;21.34;45.69;100956.66;5072392;28;45236;-71
2022/05/11 02:03:04;;;;;;;;;5.50;5.50;;;;;21.25;45.74;100938.31;5074201;28;45243;-71
2022/05/11 02:08:14;;;;;;;;;11.25;8.25;;;;;21.27;46.20;100948.09;5080589;28;45298;-71
2022/05/11 02:10:40;;;;;;;;;6.00;5.50;;;;;21.22;45.87;100935.88;5072279;28;45472;-71
2022/05/11 02:13:05;;;;;;;;;8.75;7.50;;;;;21.21;46.20;100944.97;5060968;28;46045;-71
2022/05/11 02:15:31;;;;;;;;;7.00;7.00;;;;;21.18;45.83;100942.47;5065899;28;45507;-71
2022/05/11 02:17:56;;;;;;;;;7.25;7.25;;;;;20.89;46.09;100902.09;5067189;28;45361;-71
2022/05/11 02:20:22;;;;;;;;;8.75;7.50;;;;;21.00;46.39;100923.88;5067554;28;45499;-71
2022/05/11 02:22:49;;;;;;;;;13.00;9.25;;;;;21.11;45.80;100944.78;5067324;28;46434;-71
2022/05/11 02:25:16;;;;;;;;;8.75;6.00;;;;;20.99;46.35;100919.41;5060975;28;45444;-70
2022/05/11 02:27:43;;;;;;;;;9.00;8.75;;;;;21.10;45.85;100951.22;5068863;28;45330;-71
2022/05/11 02:30:11;;;;;;;;;8.25;8.25;;;;;20.92;45.88;100919.00;5065698;28;45331;-71
2022/05/11 02:32:37;;;;;;;;;9.25;8.25;;;;;21.02;45.82;100932.75;5076190;28;47641;-71
2022/05/11 02:35:13;;;;;;;;;9.50;9.25;;;;;21.05;46.38;100940.69;5073772;28;45388;-71
2022/05/11 02:37:45;;;;;;;;;9.25;8.50;;;;;20.97;46.50;100931.38;5070528;28;45460;-71
2022/05/11 02:40:13;;;;;;;;;7.00;7.00;;;;;20.96;46.18;100935.91;5062770;28;45446;-71
2022/05/11 02:42:38;;;;;;;;;10.00;9.00;;;;;20.92;46.50;100929.00;5074299;28;47475;-71
2022/05/11 02:45:05;;;;;;;;;12.50;10.25;;;;;20.94;46.31;100929.75;5058733;28;45308;-71
2022/05/11 02:47:30;;;;;;;;;9.50;8.25;;;;;20.98;46.36;100930.38;5062318;28;45522;-71
2022/05/11 02:49:56;;;;;;;;;7.75;7.75;;;;;20.88;46.36;100908.47;5060687;28;45280;-70
2022/05/11 02:52:21;;;;;;;;;10.00;8.25;;;;;20.98;46.40;100927.66;5075223;28;45250;-70
2022/05/11 02:54:48;;;;;;;;;8.25;8.25;;;;;20.91;46.99;100917.28;5071914;28;45289;-70
2022/05/11 02:57:15;;;;;;;;;11.00;7.50;;;;;20.90;46.81;100920.97;5064554;28;45216;-71
2022/05/11 02:59:40;;;;;;;;;9.25;7.75;;;;;20.80;46.90;100900.91;5058997;28;45515;-71
2022/05/11 03:02:06;;;;;;;;;9.25;7.75;;;;;20.75;47.24;100903.09;5073122;28;45432;-71
2022/05/11 03:04:31;;;;;;;;;10.00;10.00;;;;;20.91;47.50;100917.28;5060447;28;45415;-71
2022/05/11 03:06:57;;;;;;;;;9.75;9.25;;;;;20.68;47.22;100890.94;5078351;28;45388;-71
2022/05/11 03:09:22;;;;;;;;;10.75;9.50;;;;;20.57;46.98;100874.56;5076025;28;45409;-71
2022/05/11 03:11:48;;;;;;;;;7.00;7.00;;;;;20.75;46.85;100915.78;5076358;28;47881;-71
2022/05/11 03:14:14;;;;;;;;;7.25;6.75;;;;;20.76;47.24;100921.09;5071637;28;45475;-71
2022/05/11 03:16:39;;;;;;;;;6.25;6.00;;;;;20.60;47.61;100891.47;5070572;28;45349;-70
2022/05/11 03:19:06;;;;;;;;;8.75;7.75;;;;;20.68;47.82;100913.53;5060147;28;45376;-71
2022/05/11 03:21:32;;;;;;;;;8.25;8.00;;;;;20.72;47.34;100931.28;5074517;28;46364;-71
2022/05/11 03:23:57;;;;;;;;;11.00;9.00;;;;;20.67;47.76;100919.06;5059936;28;45496;-71
2022/05/11 03:26:23;;;;;;;;;8.25;7.00;;;;;20.65;47.52;100916.44;5068455;28;45278;-71
2022/05/11 03:28:49;;;;;;;;;4.75;4.75;;;;;20.63;47.84;100920.25;5073322;28;45301;-71
2022/05/11 03:31:15;;;;;;;;;11.25;9.25;;;;;20.63;47.86;100923.84;5073581;28;46423;-71
2022/05/11 03:36:25;;;;;;;;;9.25;9.25;;;;;20.57;48.19;100926.94;5071524;28;45345;-71
2022/05/11 03:38:50;;;;;;;;;8.00;7.75;;;;;20.59;48.05;100927.69;5060337;27;45358;-71
2022/05/11 03:41:16;;;;;;;;;9.25;8.25;;;;;20.38;48.19;100899.41;5074910;28;48439;-71
2022/05/11 03:43:41;;;;;;;;;8.75;8.00;;;;;20.51;48.43;100908.41;5075748;28;45812;-71
2022/05/11 03:46:07;;;;;;;;;10.50;10.50;;;;;20.51;48.35;100919.25;5051180;28;46041;-71
2022/05/11 03:48:33;;;;;;;;;11.75;10.50;;;;;20.40;48.38;100908.28;5070291;28;45660;-71
2022/05/11 03:50:59;;;;;;;;;8.00;8.00;;;;;20.51;48.09;100925.56;5064418;28;47198;-71
2022/05/11 03:53:25;;;;;;;;;8.50;8.50;;;;;20.42;48.33;100900.94;5070918;28;45388;-71
2022/05/11 03:55:50;;;;;;;;;10.00;10.00;;;;;20.45;48.42;100914.28;5065410;28;45341;-71
2022/05/11 03:58:16;;;;;;;;;12.75;12.50;;;;;20.43;48.52;100906.25;5073621;28;45571;-71
2022/05/11 04:00:42;;;;;;;;;10.00;9.50;;;;;20.39;48.44;100915.56;5059022;28;46447;-71
2022/05/11 04:03:07;;;;;;;;;12.50;11.75;;;;;20.30;48.68;100906.25;5061648;28;45341;-71
2022/05/11 04:05:33;;;;;;;;;12.00;11.00;;;;;20.23;48.91;100899.53;5062768;28;45217;-71
2022/05/11 04:07:59;;;;;;;;;16.25;13.50;;;;;20.24;49.00;100917.50;5063741;28;45559;-71
2022/05/11 04:10:24;;;;;;;;;8.00;7.25;;;;;20.23;48.77;100913.09;5077900;27;45325;-71
2022/05/11 04:12:49;;;;;;;;;13.00;12.25;;;;;20.15;49.22;100910.03;5070638;28;45578;-71
2022/05/11 04:15:15;;;;;;;;;14.00;11.50;;;;;20.20;49.14;100929.56;5081933;28;45413;-71
2022/05/11 04:17:42;;;;;;;;;9.50;9.50;;;;;20.20;49.18;100929.56;5072896;28;45569;-71
2022/05/11 04:20:10;;;;;;;;;11.50;9.50;;;;;20.15;49.12;100920.88;5065918;28;45488;-71
2022/05/11 04:22:35;;;;;;;;;15.00;13.25;;;;;19.98;49.45;100894.97;5080790;27;45310;-71
2022/05/11 04:25:01;;;;;;;;;9.25;8.25;;;;;20.18;49.06;100931.50;5067724;28;46262;-70
2022/05/11 04:27:26;;;;;;;;;11.00;11.00;;;;;20.20;49.18;100936.81;5063063;28;45387;-71
2022/05/11 04:29:52;;;;;;;;;8.75;8.00;;;;;20.17;49.33;100932.47;5064400;28;45361;-71
2022/05/11 04:32:17;;;;;;;;;12.00;12.00;;;;;20.01;49.34;100910.13;5073503;28;45398;-71
2022/05/11 04:34:43;;;;;;;;;14.50;14.50;;;;;20.00;49.40;100906.56;5062824;28;45615;-71
2022/05/11 04:37:09;;;;;;;;;12.25;10.00;;;;;20.11;49.48;100919.34;5062612;28;45187;-71
2022/05/11 04:39:34;;;;;;;;;14.00;11.50;;;;;19.91;49.34;100893.63;5060993;28;48348;-71
2022/05/11 04:42:00;;;;;;;;;12.00;11.75;;;;;20.04;49.13;100918.91;5064449;28;45567;-72
2022/05/11 04:44:26;;;;;;;;;12.50;12.50;;;;;20.02;49.34;100912.72;5070316;28;45308;-72
2022/05/11 04:46:51;;;;;;;;;14.75;14.75;;;;;19.92;49.41;100911.63;5074546;28;45560;-72
2022/05/11 04:49:19;;;;;;;;;15.50;14.50;;;;;20.03;49.34;100932.56;5075127;28;45489;-72
2022/05/11 04:51:46;;;;;;;;;14.50;12.75;;;;;19.95;49.52;100928.53;5066492;27;45332;-72
2022/05/11 04:54:11;;;;;;;;;17.75;13.25;;;;;19.94;49.65;100936.78;5082879;28;45365;-72
2022/05/11 04:56:40;;;;;;;;;13.25;13.25;;;;;19.85;49.59;100921.16;5079077;28;45243;-72
2022/05/11 04:59:06;;;;;;;;;14.00;14.00;;;;;19.79;49.77;100912.47;5069172;28;46152;-72
2022/05/11 05:01:33;;;;;;;;;14.00;13.50;;;;;19.65;50.06;100890.84;5063947;28;45421;-72
2022/05/11 05:03:58;;;;;;;;;14.00;13.00;;;;;19.82;49.69;100921.38;5072331;28;45422;-72
2022/05/11 05:06:23;;;;;;;;;16.50;14.00;;;;;19.80;49.75;100925.03;5061799;28;45338;-72
2022/05/11 05:08:51;;;;;;;;;14.75;14.75;;;;;19.81;49.79;100925.91;5079744;27;46279;-72
2022/05/11 05:11:16;;;;;;;;;16.25;15.00;;;;;19.71;50.10;100912.13;5077839;28;45303;-72
2022/05/11 05:13:42;;;;;;;;;14.00;13.25;;;;;19.68;49.87;100909.59;5071513;28;45283;-72
2022/05/11 05:16:07;;;;;;;;;17.25;15.50;;;;;19.74;50.08;100919.16;5061938;28;45294;-71
2022/05/11 05:18:33;;;;;;;;;11.25;10.50;;;;;19.63;49.74;100909.06;5061974;28;45295;-72
2022/05/11 05:20:58;;;;;;;;;16.50;15.25;;;;;19.60;49.99;100912.81;5067194;28;45243;-72
2022/05/11 05:23:24;;;;;;;;;13.00;10.50;;;;;19.69;49.96;100924.00;5061942;28;45494;-72
2022/05/11 05:25:49;;;;;;;;;15.75;14.25;;;;;19.58;50.07;100919.34;5073350;28;45610;-72
2022/05/11 05:31:05;;;;;;;;;14.75;13.75;;;;;19.51;50.10;100912.56;5077928;28;45160;-72
2022/05/11 05:33:31;;;;;;;;;12.25;12.25;;;;;19.57;50.41;100925.72;5077585;27;45209;-72
2022/05/11 05:35:56;;;;;;;;;12.00;11.00;;;;;19.63;49.99;100928.88;5061787;28;45257;-72
2022/05/11 05:38:22;;;;;;;;;13.50;13.50;;;;;19.60;50.60;100923.66;5075266;28;47407;-72
2022/05/11 05:40:47;;;;;;;;;13.50;12.50;;;;;19.58;50.55;100931.03;5073104;28;45558;-71
2022/05/11 05:43:13;;;;;;;;;13.00;12.50;;;;;19.38;50.31;100897.16;5061875;28;45312;-74
2022/05/11 05:45:45;;;;;;;;;14.25;12.75;;;;;19.54;50.44;100928.63;5061239;28;45408;-68
2022/05/11 05:48:11;;;;;;;;;16.25;12.25;;;;;19.41;50.46;100912.31;5061273;28;46095;-69
2022/05/11 05:50:36;;;;;;;;;16.00;13.50;;;;;19.30;50.50;100894.09;5066002;28;45438;-68
2022/05/11 05:53:06;;;;;;;;;16.00;13.50;;;;;19.41;50.45;100912.31;5066811;28;45550;-68
2022/05/11 05:55:34;;;;;;;;;17.75;15.50;;;;;19.37;50.33;100908.09;5078237;28;45379;-69
2022/05/11 05:58:07;;;;;;;;;15.25;14.50;;;;;19.23;50.49;100885.53;5067953;28;45394;-69
2022/05/11 06:00:36;;;;;;;;;13.00;13.00;;;;;19.41;50.19;100906.91;5078339;28;45389;-68
2022/05/11 06:03:01;;;;;;;;;12.00;12.00;;;;;19.62;50.41;100948.78;5082122;28;45201;-68
2022/05/11 06:05:44;;;;;;;;;14.50;14.50;;;;;19.54;50.40;100929.47;5073493;28;45243;-69
2022/05/11 06:08:17;;;;;;;;;14.00;12.75;;;;;19.40;50.43;100911.47;5078809;28;47340;-68
2022/05/11 06:10:46;;;;;;;;;11.00;9.75;;;;;19.48;50.16;100926.31;5076295;28;45359;-68
2022/05/11 06:13:24;;;;;;;;;14.00;11.75;;;;;19.47;50.20;100920.03;5064870;28;45322;-68
2022/05/11 06:16:24;;;;;;;;;13.50;12.00;;;;;19.74;50.44;100954.34;5062409;28;45494;-68
2022/05/11 06:18:53;;;;;;;;;11.50;11.50;;;;;19.58;49.98;100917.47;5065283;28;46370;-68
2022/05/11 06:21:19;;;;;;;;;13.25;13.25;;;;;19.60;49.99;100911.97;5075653;27;45414;-68
2022/05/11 06:23:48;;;;;;;;;12.75;12.00;;;;;19.73;50.16;100936.34;5062625;28;45421;-68
2022/05/11 06:26:16;;;;;;;;;13.75;12.25;;;;;19.72;50.23;100927.38;5065493;28;45543;-68
2022/05/11 06:28:46;;;;;;;;;12.25;11.50;;;;;19.81;50.16;100936.72;5074426;28;47189;-68
2022/05/11 06:31:12;;;;;;;;;8.75;8.00;;;;;19.80;49.86;100933.16;5069911;28;45601;-68
2022/05/11 06:33:38;;;;;;;;;12.25;11.25;;;;;19.80;49.75;100935.88;5077369;28;45338;-68
2022/05/11 06:36:06;;;;;;;;;12.00;9.00;;;;;19.67;49.82;100907.00;5070118;28;46968;-68
2022/05/11 06:38:33;;;;;;;;;9.75;9.50;;;;;19.73;49.78;100910.16;5063330;28;48601;-68
2022/05/11 06:41:09;;;;;;;;;11.00;9.50;;;;;19.87;49.52;100925.50;5066802;28;45367;-69
2022/05/11 06:43:34;;;;;;;;;10.50;10.50;;;;;19.95;49.33;100935.81;5073704;28;45279;-68
2022/05/11 06:46:29;;;;;;;;;6.50;6.50;;;;;19.93;48.70;100925.09;5067725;27;45625;-69
2022/05/11 06:49:06;;;;;;;;;5.25;5.25;;;;;19.76;49.05;100891.03;5072823;28;46339;-68
2022/05/11 06:51:32;;;;;;;;;10.50;10.50;;;;;19.83;48.93;100893.28;5058326;27;45709;-68
2022/05/11 06:59:30;;;;;;;;;7.75;7.00;;;;;20.13;48.24;100930.94;5059768;28;45785;-68
2022/05/11 07:01:58;;;;;;;;;9.00;7.75;;;;;20.06;48.29;100914.25;5060038;28;45374;-68
2022/05/11 07:04:24;;;;;;;;;6.50;6.50;;;;;20.24;48.15;100936.47;5060393;28;45425;-68
2022/05/11 07:06:54;;;;;;;;;8.00;8.00;;;;;20.12;47.91;100905.69;5072495;28;45370;-68
2022/05/11 07:09:21;;;;;;;;;7.25;7.25;;;;;20.30;47.71;100929.78;5075762;28;46662;-69
2022/05/11 07:14:38;;;;;;;;;5.75;5.00;;;;;20.25;46.71;100910.28;5058944;28;45495;-68
2022/05/11 07:17:07;;;;;;;;;5.75;4.75;;;;;20.22;46.34;100897.78;5061708;27;45909;-68
2022/05/11 07:19:33;;;;;;;;;6.25;6.25;;;;;20.32;46.32;100911.56;5058929;28;45484;-67
2022/05/11 07:21:59;;;;;;;;;4.00;4.00;;;;;20.32;45.71;100901.56;5073723;27;45731;-68
2022/05/11 07:24:24;;;;;;;;;4.25;4.25;;;;;20.33;45.12;100902.44;5076659;28;45441;-68
2022/05/11 07:26:51;;;;;;;;;4.75;4.25;;;;;20.61;44.74;100938.44;5074259;28;45566;-67
2022/05/11 07:29:16;;;;;;;;;5.00;5.00;;;;;20.64;44.69;100939.13;5071418;28;45404;-68
2022/05/11 07:31:43;;;;;;;;;4.00;4.00;;;;;20.67;44.51;100940.75;5078451;28;45492;-70
2022/05/11 07:34:08;;;;;;;;;3.75;3.75;;;;;20.66;44.61;100939.88;5067268;28;45374;-68
2022/05/11 07:36:33;;;;;;;;;4.75;4.75;;;;;20.72;44.14;100936.72;5063812;28;45914;-68
2022/05/11 07:38:59;;;;;;;;;6.00;6.00;;;;;20.74;44.49;100939.31;5066973;28;45433;-67
2022/05/11 07:41:25;;;;;;;;;3.75;3.75;;;;;20.79;44.30;100931.72;5058384;28;45564;-67
2022/05/11 07:43:50;;;;;;;;;4.00;4.00;;;;;20.82;44.08;100927.94;5060385;28;47015;-67
2022/05/11 07:46:16;;;;;;;;;4.00;4.00;;;;;20.86;44.51;100929.44;5060192;28;45374;-68
2022/05/11 07:48:41;;;;;;;;;4.00;4.00;;;;;20.88;44.18;100932.88;5064813;27;46068;-68
2022/05/11 07:51:06;;;;;;;;;5.00;4.00;;;;;20.99;43.74;100941.13;5072010;28;45400;-67
2022/05/11 07:53:32;;;;;;;;;4.00;4.00;;;;;21.04;43.92;100943.50;5072671;28;45149;-68
2022/05/11 08:01:26;;;;;;;;;5.00;5.00;;;;;21.18;43.94;100939.75;5062384;27;45818;-67
2022/05/11 08:03:52;;;;;;;;;3.25;3.25;;;;;21.23;44.28;100941.19;5078486;27;45405;-67
2022/05/11 08:06:18;;;;;;;;;5.00;5.00;;;;;21.28;43.64;100946.25;5074030;28;45465;-70
2022/05/11 08:08:44;;;;;;;;;5.00;5.00;;;;;21.37;43.53;100947.44;5072294;28;47041;-70
2022/05/11 08:11:10;;;;;;;;;4.00;4.00;;;;;21.43;43.83;100944.22;5071755;28;45441;-71
2022/05/11 08:13:35;;;;;;;;;4.00;4.00;;;;;21.50;43.90;100944.66;5061491;28;45444;-69
2022/05/11 08:16:01;;;;;;;;;5.25;5.00;;;;;21.46;43.49;100933.16;5059418;28;45491;-71
2022/05/11 08:18:27;;;;;;;;;4.00;4.00;;;;;21.57;43.04;100944.09;5068544;28;45469;-70
2022/05/11 08:20:52;;;;;;;;;5.00;5.00;;;;;21.56;43.10;100919.78;5064547;28;45467;-67
2022/05/11 08:23:18;;;;;;;;;5.00;5.00;;;;;21.65;43.05;100927.22;5078266;28;45708;-67
2022/05/11 08:25:46;;;;;;;;;3.00;3.00;;;;;21.69;42.36;100927.88;5073207;27;45694;-66
2022/05/11 08:28:15;;;;;;;;;5.00;4.00;;;;;21.74;42.72;100929.25;5077230;28;45860;-66
2022/05/11 08:33:27;;;;;;;;;3.50;3.50;;;;;21.83;42.27;100939.41;5058580;28;45371;-66
2022/05/11 08:35:57;;;;;;;;;4.75;4.00;;;;;21.79;42.25;100924.31;5058095;28;45405;-66
2022/05/11 08:38:25;;;;;;;;;3.00;3.00;;;;;21.91;42.22;100929.78;5062089;28;45518;-66
2022/05/11 08:41:04;;;;;;;;;4.00;4.00;;;;;22.01;42.27;100947.13;5058964;28;45457;-66
2022/05/11 08:43:34;;;;;;;;;4.00;4.00;;;;;22.07;41.80;100945.75;5063009;28;45586;-66
2022/05/11 08:46:05;;;;;;;;;4.50;4.00;;;;;22.11;41.73;100944.56;5073828;28;45517;-66
2022/05/11 08:48:40;;;;;;;;;4.25;4.25;;;;;22.12;41.89;100944.44;5064247;28;47155;-66
2022/05/11 08:51:09;;;;;;;;;3.00;3.00;;;;;22.15;41.35;100946.91;5071056;28;45264;-65
2022/05/11 08:53:41;;;;;;;;;2.75;2.75;;;;;22.14;41.09;100934.31;5058589;28;45466;-66
2022/05/11 08:56:15;;;;;;;;;2.25;2.25;;;;;22.20;41.10;100932.94;5058101;28;47124;-66
2022/05/11 08:58:52;;;;;;;;;3.75;3.75;;;;;22.18;41.02;100935.78;5061783;28;45327;-65
2022/05/11 09:01:34;;;;;;;;;7.25;5.00;;;;;22.18;40.30;100924.91;5065421;28;45455;-66
2022/05/11 09:04:06;;;;;;;;;2.50;2.50;;;;;22.21;40.81;100930.09;5075649;28;45445;-66
2022/05/11 09:06:32;;;;;;;;;2.00;2.00;;;;;22.28;40.36;100933.25;5076766;28;45742;-66
2022/05/11 09:09:00;;;;;;;;;2.25;2.25;;;;;22.33;40.08;100939.19;5077830;28;45973;-66
2022/05/11 09:11:33;;;;;;;;;4.00;2.50;;;;;22.35;39.29;100939.94;5072958;27;45714;-66
2022/05/11 09:14:01;;;;;;;;;2.25;2.00;;;;;22.40;39.40;100939.56;5070923;28;45464;-66
2022/05/11 09:16:46;;;;;;;;;5.00;5.00;;;;;22.41;39.77;100940.44;5076232;28;45343;-66
2022/05/11 09:19:19;;;;;;;;;1.50;1.50;;;;;22.45;39.45;100937.34;5067560;28;46914;-66
2022/05/11 09:21:51;;;;;;;;;3.00;3.00;;;;;22.52;38.39;100938.59;5071671;28;45495;-66
2022/05/11 09:24:16;;;;;;;;;2.00;2.00;;;;;22.55;38.02;100949.25;5061956;28;45440;-66
2022/05/11 09:26:44;;;;;;;;;5.75;3.00;;;;;22.59;37.44;100952.59;5059936;28;45431;-66
2022/05/11 09:29:16;;;;;;;;;2.25;2.25;;;;;22.52;37.60;100935.88;5072178;28;45504;-66
2022/05/11 09:31:43;;;;;;;;;7.25;6.25;;;;;22.59;37.52;100941.72;5076955;28;45468;-66
2022/05/11 09:34:12;;;;;;;;;3.00;2.00;;;;;22.62;37.20;100943.28;5067340;28;45498;-66
2022/05/11 09:36:59;;;;;;;;;3.00;3.00;;;;;22.64;37.55;100942.19;5061606;28;45555;-66
2022/05/11 09:39:27;;;;;;;;;3.00;3.00;;;;;22.66;37.28;100944.78;5061132;28;46105;-66
2022/05/11 09:41:57;;;;;;;;;2.50;2.50;;;;;22.67;37.56;100932.91;5068695;28;45701;-66
2022/05/11 09:44:26;;;;;;;;;2.75;2.75;;;;;22.67;37.87;100925.63;5062522;28;45354;-66
2022/05/11 09:46:53;;;;;;;;;3.75;3.00;;;;;22.75;37.79;100931.31;5062270;28;45422;-66
2022/05/11 09:49:18;;;;;;;;;2.25;1.25;;;;;22.79;37.55;100925.59;5079327;28;47258;-66
2022/05/11 09:51:46;;;;;;;;;3.00;3.00;;;;;22.81;36.97;100924.50;5062721;28;45355;-66
2022/05/11 09:54:38;;;;;;;;;2.25;2.25;;;;;22.83;36.58;100929.81;5060645;28;45456;-66
2022/05/11 09:57:09;;;;;;;;;2.50;2.50;;;;;22.85;36.32;100928.69;5072562;28;45883;-66
2022/05/11 09:59:50;;;;;;;;;2.00;2.00;;;;;22.85;36.73;100917.81;5060175;28;45639;-66
2022/05/11 10:02:30;;;;;;;;;3.00;2.00;;;;;22.88;36.78;100917.56;5067358;28;45351;-66
2022/05/11 10:05:17;;;;;;;;;3.00;3.00;;;;;22.94;37.11;100930.69;5067828;28;45959;-66
2022/05/11 10:07:55;;;;;;;;;3.50;2.00;;;;;22.97;36.52;100917.81;5062647;28;45965;-66
2022/05/11 10:10:33;;;;;;;;;2.50;2.50;;;;;23.04;35.82;100925.34;5067428;28;45543;-66
2022/05/11 10:13:11;;;;;;;;;2.75;1.25;;;;;23.10;35.42;100933.06;5058866;28;45548;-66
2022/05/11 10:21:52;;;;;;;;;5.25;2.25;;;;;23.25;35.08;100936.34;5077558;28;45882;-66
2022/05/11 10:24:26;;;;;;;;;2.50;1.25;;;;;23.27;34.81;100926.22;5059521;28;45489;-66
2022/05/11 10:27:07;;;;;;;;;2.00;2.00;;;;;23.30;34.37;100931.41;5060911;27;45269;-66
2022/05/11 10:29:51;;;;;;;;;2.00;2.00;;;;;23.32;34.57;100933.97;5070200;28;45351;-66
2022/05/11 10:32:28;;;;;;;;;2.50;2.50;;;;;23.31;35.07;100919.50;5070836;28;46130;-66
2022/05/11 10:35:07;;;;;;;;;3.00;3.00;;;;;23.35;35.57;100925.56;5061107;28;45533;-66
2022/05/11 10:38:01;;;;;;;;;2.00;2.00;;;;;23.43;35.96;100930.38;5078155;28;45434;-66
2022/05/11 10:40:59;;;;;;;;;1.50;0.50;;;;;23.45;35.97;100931.09;5057928;28;45618;-66
2022/05/11 10:43:56;;;;;;;;;2.25;2.25;;;;;23.48;36.16;100941.75;5067824;28;46014;-66
2022/05/11 10:46:30;;;;;;;;;1.75;1.75;;;;;23.37;36.30;100907.25;5077347;28;45663;-66
2022/05/11 10:49:02;;;;;;;;;2.00;2.00;;;;;23.53;36.38;100936.78;5064242;27;45455;-66
2022/05/11 10:52:01;;;;;;;;;5.75;2.75;;;;;23.54;37.03;100926.72;5061448;28;45692;-66
2022/05/11 10:54:30;;;;;;;;;5.75;3.75;;;;;23.54;37.11;100916.72;5059089;28;45401;-66
2022/05/11 10:57:35;;;;;;;;;2.25;2.25;;;;;23.55;37.22;100917.56;5061192;28;45342;-66
2022/05/11 11:00:07;;;;;;;;;2.00;2.00;;;;;23.53;37.17;100905.94;5074858;27;45408;-66
2022/05/11 11:02:56;;;;;;;;;2.50;2.50;;;;;23.57;37.17;100908.28;5059123;28;45857;-66
2022/05/11 11:05:24;;;;;;;;;3.00;3.00;;;;;23.58;37.18;100899.09;5065865;28;46777;-66
2022/05/11 11:08:14;;;;;;;;;3.00;3.00;;;;;23.60;37.23;100902.56;5078354;28;45353;-66
2022/05/11 11:11:14;;;;;;;;;3.75;2.00;;;;;23.62;37.44;100906.03;5078413;28;45376;-66
2022/05/11 11:13:49;;;;;;;;;1.50;1.50;;;;;23.66;37.77;100896.59;5057862;28;45310;-66
2022/05/11 11:16:15;;;;;;;;;2.25;2.00;;;;;23.71;37.22;100887.19;5058998;28;46163;-66
2022/05/11 11:18:49;;;;;;;;;3.75;3.50;;;;;23.74;37.51;100886.88;5059523;28;45765;-66
2022/05/11 11:21:16;;;;;;;;;1.00;1.00;;;;;23.79;37.46;100887.34;5057638;28;45324;-66
2022/05/11 11:23:47;;;;;;;;;2.00;2.00;;;;;23.86;37.36;100894.91;5058756;28;45445;-66
2022/05/11 11:27:05;;;;;;;;;3.00;3.00;;;;;23.92;37.43;100892.66;5058857;28;46471;-66
2022/05/11 11:29:38;;;;;;;;;3.00;3.00;;;;;23.94;37.10;100880.63;5036385;28;45388;-66
2022/05/11 11:32:20;;;;;;;;;4.00;2.00;;;;;24.04;37.14;100880.69;5072461;28;45360;-66
2022/05/11 11:34:51;;;;;;;;;2.25;2.25;;;;;23.98;36.59;100867.59;5060607;28;45386;-66
2022/05/11 11:37:35;;;;;;;;;2.75;2.00;;;;;24.11;37.13;100881.88;5058503;28;47152;-66
2022/05/11 11:40:13;;;;;;;;;1.75;1.50;;;;;24.15;37.10;100866.97;5058904;28;45483;-66
2022/05/11 11:42:41;;;;;;;;;3.00;1.00;;;;;24.13;36.87;100865.38;5058709;28;45342;-66
2022/05/11 11:45:10;;;;;;;;;1.50;1.50;;;;;24.19;37.52;100868.44;5057233;28;45415;-66
2022/05/11 11:47:59;;;;;;;;;3.75;2.25;;;;;24.21;37.38;100868.31;5058634;28;46244;-66
2022/05/11 11:50:50;;;;;;;;;2.50;2.00;;;;;24.22;36.85;100846.34;5065634;28;45584;-66
2022/05/11 11:53:30;;;;;;;;;2.25;1.00;;;;;24.15;37.29;100838.84;5058828;28;45404;-67
2022/05/11 11:56:24;;;;;;;;;3.50;2.00;;;;;24.26;37.06;100862.41;5061019;28;45362;-66
2022/05/11 11:59:03;;;;;;;;;3.00;3.00;;;;;24.30;37.08;100866.63;5055697;28;45711;-68
2022/05/11 12:01:32;;;;;;;;;2.00;2.00;;;;;24.30;36.93;100872.94;5069558;28;45817;-66
2022/05/11 12:04:01;;;;;;;;;2.00;2.00;;;;;24.27;36.48;100851.38;5061027;27;45415;-66
2022/05/11 12:15:01;;;;;;;;;2.75;2.50;;;;;24.44;36.99;100847.19;5059415;28;45512;-66